Terminal Aerodrome Forecast
Issued by NWS

Home | Current Version | Previous Version | Text Only | Print | Product List | Glossary On
Versions: 1 2 3 4 5 6 7 8 9 10 11 12 13 14 15 16
868
FTUS46 KHNX 131858 AAA
TAFMCE
TAF AMD
KMCE 131858Z 1319/1418 32009KT 3SM BR BKN005
     FM132000 34010KT 5SM BR SKC
     FM140300 31004KT P6SM SKC
     FM140800 VRB03KT 4SM BR SKC=

USA.gov is the U.S. government's official web portal to all federal, state and local government web resources and services.